createdAt,value
2019-02-27T00:02:41.946Z,4.90
2019-02-27T00:07:48.404Z,4.80
2019-02-27T00:12:52.451Z,4.80
2019-02-27T00:17:56.015Z,4.80
2019-02-27T00:23:00.877Z,4.30
2019-02-27T00:28:04.227Z,4.30
2019-02-27T00:33:10.499Z,4.50
2019-02-27T00:38:25.277Z,4.70
2019-02-27T00:43:31.406Z,4.60
2019-02-27T00:48:34.741Z,4.40
2019-02-27T00:53:38.191Z,4.30
2019-02-27T00:59:06.836Z,4.20
2019-02-27T01:04:10.350Z,4.10
2019-02-27T01:09:13.998Z,3.80
2019-02-27T01:14:20.557Z,3.90
2019-02-27T01:19:32.982Z,3.80
2019-02-27T01:24:36.343Z,3.70
2019-02-27T01:29:39.909Z,3.80
2019-02-27T01:34:44.551Z,3.70
2019-02-27T01:39:48.499Z,3.60
2019-02-27T01:44:51.886Z,3.50
2019-02-27T01:49:58.473Z,3.50
2019-02-27T01:55:01.835Z,3.70
2019-02-27T02:00:08.168Z,3.90
2019-02-27T02:05:13.524Z,3.80
2019-02-27T02:10:19.758Z,3.60
2019-02-27T02:15:53.573Z,3.50
2019-02-27T02:21:44.867Z,3.60
2019-02-27T02:27:42.168Z,3.40
2019-02-27T02:32:54.746Z,3.50
2019-02-27T02:38:52.867Z,3.60
2019-02-27T02:45:01.919Z,3.50
2019-02-27T02:51:08.100Z,3.40
2019-02-27T02:56:24.870Z,3.40
2019-02-27T03:01:39.707Z,3.60
2019-02-27T03:07:22.853Z,3.40
2019-02-27T03:12:52.074Z,3.20
2019-02-27T03:18:54.976Z,3.30
2019-02-27T03:24:35.769Z,3.10
2019-02-27T03:30:34.298Z,3.10
2019-02-27T03:36:36.023Z,3.20
2019-02-27T03:42:23.598Z,3.00
2019-02-27T03:48:13.927Z,2.90
2019-02-27T03:53:24.337Z,3.10
2019-02-27T03:58:53.208Z,3.20
2019-02-27T04:04:35.937Z,3.10
2019-02-27T04:09:47.161Z,3.30
2019-02-27T04:14:50.389Z,3.20
2019-02-27T04:19:53.813Z,2.90
2019-02-27T04:24:57.794Z,2.90
2019-02-27T04:30:01.404Z,3.00
2019-02-27T04:35:06.336Z,3.00
2019-02-27T04:40:11.231Z,2.90
2019-02-27T04:45:14.855Z,2.70
2019-02-27T04:50:21.801Z,2.60
2019-02-27T04:55:31.052Z,2.70
2019-02-27T05:00:34.568Z,2.50
2019-02-27T05:05:39.147Z,2.60
2019-02-27T05:10:43.085Z,2.50
2019-02-27T05:15:49.211Z,2.40
2019-02-27T05:20:52.576Z,2.50
2019-02-27T05:25:59.258Z,2.40
2019-02-27T05:31:02.625Z,2.40
2019-02-27T05:36:06.141Z,2.50
2019-02-27T05:41:32.982Z,2.50
2019-02-27T05:46:35.718Z,2.20
2019-02-27T05:51:42.580Z,2.30
2019-02-27T05:56:50.717Z,2.30
2019-02-27T06:01:53.966Z,2.40
2019-02-27T06:06:57.284Z,2.30
2019-02-27T06:12:00.713Z,2.40
2019-02-27T06:17:04.269Z,2.30
2019-02-27T06:22:07.780Z,2.20
2019-02-27T06:27:11.295Z,2.30
2019-02-27T06:32:16.882Z,2.20
2019-02-27T06:37:20.191Z,2.20
2019-02-27T06:42:23.470Z,2.10
2019-02-27T06:47:26.763Z,2.00
2019-02-27T06:52:30.305Z,2.70
2019-02-27T06:57:33.659Z,3.20
2019-02-27T07:02:43.303Z,3.10
2019-02-27T07:07:49.041Z,2.90
2019-02-27T07:12:55.836Z,2.80
2019-02-27T07:17:59.656Z,3.30
2019-02-27T07:23:05.735Z,3.50
2019-02-27T07:28:09.558Z,3.60
2019-02-27T07:33:15.673Z,3.90
2019-02-27T07:38:21.732Z,4.10
2019-02-27T07:43:25.121Z,4.50
2019-02-27T07:48:30.483Z,4.70
2019-02-27T07:53:34.300Z,4.80
2019-02-27T07:58:49.393Z,5.20
2019-02-27T08:03:53.008Z,5.30
2019-02-27T08:09:05.793Z,5.50
2019-02-27T08:14:13.004Z,5.80
2019-02-27T08:19:16.505Z,6.20
2019-02-27T08:24:26.278Z,6.50
2019-02-27T08:29:30.291Z,6.90
2019-02-27T08:34:35.261Z,7.00
2019-02-27T08:39:38.727Z,7.20
2019-02-27T08:44:43.014Z,7.40
2019-02-27T08:49:47.276Z,7.50
2019-02-27T08:54:50.895Z,7.60
2019-02-27T08:59:54.341Z,7.80
2019-02-27T09:05:00.729Z,7.90
2019-02-27T09:10:14.949Z,8.10
2019-02-27T09:15:18.414Z,8.20
2019-02-27T09:20:25.010Z,8.50
2019-02-27T09:25:28.571Z,8.70
2019-02-27T09:30:35.516Z,8.90
2019-02-27T09:35:41.979Z,9.30
2019-02-27T09:40:45.361Z,9.40
2019-02-27T09:45:51.951Z,9.60
2019-02-27T09:50:57.002Z,10.10
2019-02-27T09:56:02.771Z,10.70
2019-02-27T10:01:13.996Z,11.10
2019-02-27T10:06:17.578Z,11.80
2019-02-27T10:11:23.861Z,12.60
2019-02-27T10:16:29.356Z,13.10
2019-02-27T10:21:41.242Z,13.80
2019-02-27T10:26:44.088Z,14.20
2019-02-27T10:31:50.127Z,14.10
2019-02-27T10:36:53.739Z,14.10
2019-02-27T10:41:57.091Z,14.80
2019-02-27T10:47:00.783Z,15.20
2019-02-27T10:52:04.124Z,15.70
2019-02-27T10:57:13.139Z,15.90
2019-02-27T11:02:16.479Z,16.00
2019-02-27T11:07:22.844Z,16.50
2019-02-27T11:12:26.863Z,17.10
2019-02-27T11:17:31.213Z,17.70
2019-02-27T11:22:34.781Z,18.00
2019-02-27T11:27:38.937Z,18.10
2019-02-27T11:32:42.884Z,19.10
2019-02-27T11:37:47.752Z,19.40
2019-02-27T11:42:51.200Z,19.10
2019-02-27T11:47:54.556Z,19.30
2019-02-27T11:53:01.531Z,19.70
2019-02-27T11:58:05.377Z,20.50
2019-02-27T12:03:08.661Z,20.90
2019-02-27T12:08:13.745Z,21.00
2019-02-27T12:13:17.207Z,20.80
2019-02-27T12:18:20.576Z,21.80
2019-02-27T12:23:23.878Z,21.30
2019-02-27T12:28:27.279Z,21.30
2019-02-27T12:33:30.860Z,21.70
2019-02-27T12:38:34.318Z,22.20
2019-02-27T12:43:40.655Z,22.10
2019-02-27T12:48:46.372Z,21.40
2019-02-27T12:53:49.220Z,21.60
2019-02-27T12:58:59.267Z,21.60
2019-02-27T13:04:02.553Z,21.40
2019-02-27T13:09:06.682Z,21.10
2019-02-27T13:14:11.630Z,21.00
2019-02-27T13:19:16.495Z,21.40
2019-02-27T13:24:19.894Z,20.90
2019-02-27T13:29:23.455Z,21.10
2019-02-27T13:34:28.912Z,21.10
2019-02-27T13:39:32.567Z,21.60
2019-02-27T13:44:38.956Z,21.60
2019-02-27T13:49:44.998Z,22.00
2019-02-27T13:54:49.077Z,21.40
2019-02-27T13:59:52.528Z,21.40
2019-02-27T14:04:57.284Z,21.60
2019-02-27T14:10:02.494Z,21.70
2019-02-27T14:15:06.750Z,21.60
2019-02-27T14:20:12.213Z,21.70
2019-02-27T14:25:17.338Z,21.90
2019-02-27T14:30:22.474Z,21.70
2019-02-27T14:35:25.897Z,22.30
2019-02-27T14:40:29.358Z,22.80
2019-02-27T14:45:33.843Z,22.30
2019-02-27T14:50:37.250Z,22.40
2019-02-27T14:55:42.108Z,21.60
2019-02-27T15:00:45.571Z,21.80
2019-02-27T15:05:51.698Z,22.00
2019-02-27T15:10:54.938Z,21.60
2019-02-27T15:15:58.320Z,21.60
2019-02-27T15:21:07.721Z,21.20
2019-02-27T15:26:13.890Z,21.10
2019-02-27T15:31:18.122Z,21.20
2019-02-27T15:36:29.250Z,20.60
2019-02-27T15:41:35.072Z,20.50
2019-02-27T15:46:35.535Z,20.40
2019-02-27T15:51:39.052Z,20.30
2019-02-27T15:56:45.266Z,19.90
2019-02-27T16:01:47.741Z,19.90
2019-02-27T16:06:51.275Z,19.40
2019-02-27T16:11:57.784Z,19.00
2019-02-27T16:17:01.342Z,18.60
2019-02-27T16:22:05.970Z,18.40
2019-02-27T16:27:12.469Z,18.30
2019-02-27T16:32:16.085Z,17.90
2019-02-27T16:37:22.841Z,17.50
2019-02-27T16:42:25.840Z,17.30
2019-02-27T16:47:29.249Z,17.00
2019-02-27T16:52:32.730Z,16.70
2019-02-27T16:57:36.070Z,16.40
2019-02-27T17:02:39.469Z,16.30
2019-02-27T17:07:45.634Z,16.20
2019-02-27T17:12:51.803Z,15.90
2019-02-27T17:17:55.117Z,16.00
2019-02-27T17:22:58.456Z,15.90
2019-02-27T17:28:04.631Z,15.70
2019-02-27T17:33:08.222Z,15.60
2019-02-27T17:38:13.820Z,15.40
2019-02-27T17:43:16.870Z,15.30
2019-02-27T17:48:20.277Z,15.30
2019-02-27T17:53:23.740Z,14.90
2019-02-27T17:58:31.816Z,15.00
2019-02-27T18:03:32.312Z,14.90
2019-02-27T18:08:49.062Z,14.60
2019-02-27T18:13:50.096Z,14.50
2019-02-27T18:18:53.484Z,14.50
2019-02-27T18:23:59.944Z,14.50
2019-02-27T18:29:04.272Z,14.40
2019-02-27T18:34:08.640Z,14.40
2019-02-27T18:39:12.058Z,14.40
2019-02-27T18:44:16.841Z,14.20
2019-02-27T18:49:21.924Z,14.00
2019-02-27T18:54:25.541Z,14.20
2019-02-27T18:59:30.900Z,14.10
2019-02-27T19:04:35.987Z,13.80
2019-02-27T19:09:39.419Z,13.70
2019-02-27T19:14:42.925Z,13.60
2019-02-27T19:19:48.983Z,13.60
2019-02-27T19:24:53.267Z,13.50
2019-02-27T19:29:56.837Z,13.40
2019-02-27T19:35:03.085Z,13.20
2019-02-27T19:40:07.496Z,13.20
2019-02-27T19:45:13.979Z,13.10
2019-02-27T19:50:17.600Z,13.20
2019-02-27T19:55:27.623Z,13.20
2019-02-27T20:00:34.904Z,13.10
2019-02-27T20:05:36.531Z,13.00
2019-02-27T20:10:40.013Z,13.10
2019-02-27T20:15:45.685Z,13.00
2019-02-27T20:20:53.061Z,13.00
2019-02-27T20:25:59.373Z,12.90
2019-02-27T20:31:08.342Z,12.80
2019-02-27T20:36:11.719Z,12.80
2019-02-27T20:41:15.304Z,12.80
2019-02-27T20:46:24.979Z,12.70
2019-02-27T20:51:28.482Z,12.70
2019-02-27T20:56:37.846Z,12.50
2019-02-27T21:01:57.732Z,12.50
2019-02-27T21:07:01.200Z,12.50
2019-02-27T21:12:07.294Z,12.40
2019-02-27T21:17:09.915Z,12.40
2019-02-27T21:22:13.400Z,12.60
2019-02-27T21:27:19.915Z,12.50
2019-02-27T21:32:23.250Z,12.30
2019-02-27T21:37:26.397Z,12.20
2019-02-27T21:42:32.962Z,11.90
2019-02-27T21:47:36.368Z,11.70
2019-02-27T21:52:42.730Z,11.60
2019-02-27T21:57:48.581Z,11.60
2019-02-27T22:02:52.096Z,11.50
2019-02-27T22:07:55.713Z,11.30
2019-02-27T22:12:58.959Z,11.20
2019-02-27T22:18:05.336Z,11.20
2019-02-27T22:23:13.608Z,11.20
2019-02-27T22:28:17.312Z,11.40
2019-02-27T22:33:23.151Z,11.30
2019-02-27T22:38:26.846Z,11.30
2019-02-27T22:43:30.227Z,11.40
2019-02-27T22:48:33.771Z,11.30
2019-02-27T22:53:37.217Z,11.20
2019-02-27T22:58:40.627Z,11.20
2019-02-27T23:03:57.901Z,11.10
2019-02-27T23:09:00.360Z,11.00
2019-02-27T23:14:04.043Z,11.00
2019-02-27T23:19:07.335Z,10.90
2019-02-27T23:24:13.536Z,10.80
2019-02-27T23:29:20.322Z,10.70
2019-02-27T23:34:23.769Z,10.80
2019-02-27T23:39:27.253Z,10.80
2019-02-27T23:44:38.484Z,10.80
2019-02-27T23:49:39.789Z,10.80
2019-02-27T23:54:53.159Z,10.60
2019-02-27T23:59:56.676Z,10.60
